Time;durP1;ratioP1;P1;durP2;ratioP2;P2;SDS_P1;SDS_P2;PMS_P1;PMS_P2;Temp;Humidity;BMP_temperature;BMP_pressure;BME280_temperature;BME280_humidity;BME280_pressure;Samples;Min_cycle;Max_cycle;Signal;HPM_P1;HPM_P2
2022/01/20 00:03:31;;;;;;;17.95;5.32;;;3.70;99.90;;;;;;4934886;28;90253;-29
2022/01/20 00:27:27;;;;;;;15.73;4.25;;;3.60;99.90;;;;;;4934285;28;90900;-31
2022/01/20 00:35:20;;;;;;;;;;;3.60;99.90;;;;;;4935224;28;90144;-30
2022/01/20 00:37:46;;;;;;;20.40;4.10;;;3.60;99.90;;;;;;4937074;28;88238;-29
2022/01/20 00:40:13;;;;;;;19.13;4.38;;;3.70;99.90;;;;;;4935425;28;89465;-33
2022/01/20 00:42:38;;;;;;;12.73;4.45;;;3.70;99.90;;;;;;4934725;28;88059;-29
2022/01/20 00:45:05;;;;;;;14.07;3.97;;;3.70;99.90;;;;;;4934457;28;89134;-31
2022/01/20 00:47:31;;;;;;;10.25;4.07;;;3.80;99.90;;;;;;4934428;28;90872;-30
2022/01/20 00:49:56;;;;;;;12.52;3.85;;;3.80;99.90;;;;;;4935115;28;89537;-31
2022/01/20 00:52:22;;;;;;;24.73;5.13;;;3.80;99.90;;;;;;4934717;28;88168;-29
2022/01/20 00:54:48;;;;;;;11.45;4.13;;;3.80;99.90;;;;;;4934451;28;90351;-31
2022/01/20 00:57:14;;;;;;;11.63;3.20;;;3.80;99.90;;;;;;4934762;28;89664;-31
2022/01/20 00:59:40;;;;;;;10.25;3.58;;;3.80;99.90;;;;;;4934331;28;89034;-31
2022/01/20 01:02:08;;;;;;;8.45;4.00;;;3.80;99.90;;;;;;4935256;28;88149;-29
2022/01/20 01:04:34;;;;;;;14.35;3.72;;;3.80;99.90;;;;;;4934359;28;90365;-30
2022/01/20 01:09:45;;;;;;;9.70;2.90;;;3.70;99.90;;;;;;4935042;28;89412;-30
2022/01/20 01:12:16;;;;;;;16.98;4.32;;;3.70;99.90;;;;;;4934923;28;88746;-30
2022/01/20 01:14:47;;;;;;;18.40;4.05;;;3.70;99.90;;;;;;4934049;28;90529;-31
2022/01/20 01:22:23;;;;;;;9.63;2.75;;;3.60;99.90;;;;;;4937967;28;87811;-30
2022/01/20 01:24:55;;;;;;;7.82;3.78;;;3.60;99.90;;;;;;4937628;28;90628;-32
2022/01/20 01:27:24;;;;;;;16.90;4.50;;;3.60;99.90;;;;;;4937822;28;89836;-30
2022/01/20 01:32:32;;;;;;;21.98;4.90;;;3.50;99.90;;;;;;4937697;28;87704;-29
2022/01/20 01:35:00;;;;;;;10.93;3.00;;;3.60;99.90;;;;;;4937933;28;90062;-30
2022/01/20 01:39:58;;;;;;;16.40;4.13;;;3.60;99.90;;;;;;4937130;28;89107;-29
2022/01/20 01:42:31;;;;;;;20.15;3.72;;;3.60;99.90;;;;;;4937099;28;88862;-29
2022/01/20 01:45:08;;;;;;;17.15;4.03;;;3.60;99.90;;;;;;4937551;28;91215;-29
2022/01/20 01:47:33;;;;;;;10.45;3.70;;;3.60;99.90;;;;;;4937482;28;91384;-31
2022/01/20 01:49:59;;;;;;;9.18;3.13;;;3.80;99.90;;;;;;4937636;28;89538;-29
2022/01/20 01:52:25;;;;;;;12.00;3.08;;;3.80;99.90;;;;;;4937424;28;87862;-31
2022/01/20 01:54:50;;;;;;;9.40;2.80;;;3.90;99.90;;;;;;4937152;28;90049;-30
2022/01/20 01:57:16;;;;;;;7.38;2.28;;;3.90;99.90;;;;;;4937000;28;90184;-33
2022/01/20 01:59:41;;;;;;;10.00;3.03;;;3.90;99.90;;;;;;4935807;28;89682;-29
2022/01/20 02:02:07;;;;;;;14.02;3.92;;;4.00;99.90;;;;;;4937331;28;87547;-30
2022/01/20 02:04:33;;;;;;;9.05;2.60;;;4.00;99.90;;;;;;4936845;28;90390;-31
2022/01/20 02:20:44;;;;;;;9.43;1.95;;;3.60;99.90;;;;;;4936712;28;90000;-32
2022/01/20 02:23:09;;;;;;;7.13;2.15;;;3.50;99.90;;;;;;4936986;28;87622;-30
2022/01/20 02:25:36;;;;;;;11.65;2.60;;;3.50;99.90;;;;;;4936656;28;90299;-31
2022/01/20 02:28:08;;;;;;;17.23;2.25;;;3.40;99.90;;;;;;4934271;28;89628;-30
2022/01/20 02:30:35;;;;;;;6.72;2.33;;;3.40;99.90;;;;;;4936363;28;89358;-31
2022/01/20 02:33:04;;;;;;;11.50;2.63;;;3.40;99.90;;;;;;4936003;28;88004;-30
2022/01/20 02:35:33;;;;;;;2.42;1.98;;;3.40;99.90;;;;;;4936045;28;89115;-30
2022/01/20 02:38:06;;;;;;;9.25;2.15;;;3.40;99.90;;;;;;4937127;28;88673;-31
2022/01/20 02:45:55;;;;;;;;;;;3.70;99.90;;;;;;4936342;28;90359;-31
2022/01/20 02:48:22;;;;;;;8.55;2.28;;;3.80;99.90;;;;;;4936691;28;89291;-30
2022/01/20 02:50:47;;;;;;;3.90;1.95;;;3.90;99.90;;;;;;4936262;28;89253;-31
2022/01/20 02:53:13;;;;;;;13.23;2.38;;;3.80;99.90;;;;;;4936379;28;87559;-30
2022/01/20 02:55:39;;;;;;;7.03;2.08;;;3.80;99.90;;;;;;4935788;28;90179;-29
2022/01/20 02:58:06;;;;;;;4.00;1.95;;;3.80;99.90;;;;;;4933801;28;90442;-32
2022/01/20 03:00:33;;;;;;;11.15;3.55;;;3.90;99.90;;;;;;4935759;28;90642;-31
2022/01/20 03:03:00;;;;;;;4.97;2.47;;;3.90;99.90;;;;;;4936742;28;87492;-28
2022/01/20 03:05:25;;;;;;;8.88;2.13;;;3.90;99.90;;;;;;4935900;28;90366;-30
2022/01/20 03:07:51;;;;;;;6.80;2.30;;;3.90;99.90;;;;;;4935883;28;89778;-33
2022/01/20 03:10:17;;;;;;;17.80;3.28;;;3.80;99.90;;;;;;4918410;28;88469;-31
2022/01/20 03:12:43;;;;;;;5.80;2.70;;;3.80;99.90;;;;;;4936280;28;88378;-29
2022/01/20 03:15:08;;;;;;;9.55;3.05;;;3.70;99.90;;;;;;4935924;28;90132;-30
2022/01/20 03:17:34;;;;;;;8.70;2.60;;;3.70;99.90;;;;;;4936160;28;89332;-30
2022/01/20 03:19:59;;;;;;;13.60;2.63;;;3.70;99.90;;;;;;4935772;28;88951;-31
2022/01/20 03:22:25;;;;;;;7.30;2.45;;;3.70;99.90;;;;;;4935251;28;87719;-30
2022/01/20 03:24:51;;;;;;;10.93;2.83;;;3.60;99.90;;;;;;4935827;28;89080;-30
2022/01/20 03:27:17;;;;;;;9.15;2.65;;;3.60;99.90;;;;;;4935642;28;89720;-31
2022/01/20 03:29:42;;;;;;;13.02;3.50;;;3.60;99.90;;;;;;4935583;28;88182;-30
2022/01/20 03:32:08;;;;;;;9.25;3.15;;;3.50;99.90;;;;;;4935629;28;87515;-32
2022/01/20 03:34:34;;;;;;;12.65;4.07;;;3.60;99.90;;;;;;4918154;28;91004;-28
2022/01/20 03:37:04;;;;;;;17.73;4.97;;;3.70;99.90;;;;;;4935287;28;89996;-31
2022/01/20 03:39:31;;;;;;;19.23;3.50;;;3.60;99.90;;;;;;4936462;28;88221;-30
2022/01/20 03:41:57;;;;;;;12.82;3.83;;;3.60;99.90;;;;;;4935999;28;87548;-29
2022/01/20 03:44:22;;;;;;;11.35;2.90;;;3.50;99.90;;;;;;4917846;28;90324;-29
2022/01/20 03:46:48;;;;;;;12.65;4.03;;;3.50;99.90;;;;;;4934573;28;90632;-31
2022/01/20 03:51:59;;;;;;;18.45;4.30;;;3.50;99.90;;;;;;4935866;28;87452;-29
2022/01/20 03:54:25;;;;;;;17.33;4.70;;;3.50;99.90;;;;;;4935727;28;91265;-32
2022/01/20 03:56:50;;;;;;;17.60;5.05;;;3.40;99.90;;;;;;4933269;28;89367;-31
2022/01/20 03:59:16;;;;;;;19.23;4.05;;;3.50;99.90;;;;;;4935297;28;89583;-31
2022/01/20 04:01:42;;;;;;;17.55;3.55;;;3.50;99.90;;;;;;4917709;28;87712;-31
2022/01/20 04:04:07;;;;;;;15.63;4.05;;;3.60;99.90;;;;;;4935546;28;89880;-31
2022/01/20 04:06:33;;;;;;;12.52;5.15;;;3.80;99.90;;;;;;4934885;28;89167;-31
2022/01/20 04:08:58;;;;;;;13.10;4.13;;;3.70;99.90;;;;;;4935248;28;90134;-31
2022/01/20 04:11:27;;;;;;;19.60;5.10;;;3.60;99.90;;;;;;4934826;28;87823;-31
2022/01/20 04:13:54;;;;;;;27.33;7.20;;;3.50;99.90;;;;;;4935301;28;90045;-30
2022/01/20 04:16:34;;;;;;;16.83;5.05;;;3.40;99.90;;;;;;4935051;28;89509;-32
2022/01/20 04:19:01;;;;;;;29.05;5.80;;;3.40;99.90;;;;;;4935017;28;89504;-33
2022/01/20 04:21:28;;;;;;;15.73;5.63;;;3.40;99.90;;;;;;4935238;28;87524;-30
2022/01/20 04:23:55;;;;;;;23.60;6.38;;;3.40;99.90;;;;;;4935013;28;90847;-32
2022/01/20 04:26:22;;;;;;;14.02;4.57;;;3.50;99.90;;;;;;4935004;28;90336;-31
2022/01/20 04:28:48;;;;;;;16.05;5.80;;;3.50;99.90;;;;;;4934987;28;89094;-32
2022/01/20 04:31:14;;;;;;;18.88;5.35;;;3.50;99.90;;;;;;4934947;28;87464;-29
2022/01/20 04:33:40;;;;;;;18.98;4.88;;;3.60;99.90;;;;;;4934737;28;90132;-30
2022/01/20 04:36:06;;;;;;;23.15;4.45;;;3.50;99.90;;;;;;4934858;28;90568;-30
2022/01/20 04:38:33;;;;;;;15.02;4.95;;;3.40;99.90;;;;;;4934760;28;89159;-35
2022/01/20 04:40:58;;;;;;;9.85;4.05;;;3.40;99.90;;;;;;4934887;28;87535;-29
2022/01/20 04:43:25;;;;;;;14.98;4.75;;;3.30;99.90;;;;;;4933242;28;89158;-30
2022/01/20 04:45:59;;;;;;;22.83;4.63;;;3.20;99.90;;;;;;4934192;28;90160;-30
2022/01/20 04:48:44;;;;;;;19.88;4.03;;;3.20;99.90;;;;;;4934508;28;89493;-30
2022/01/20 04:59:23;;;;;;;15.20;4.97;;;3.30;99.90;;;;;;4936721;28;89542;-30
2022/01/20 05:01:48;;;;;;;8.70;3.75;;;3.10;99.90;;;;;;4937382;28;88302;-32
2022/01/20 05:04:14;;;;;;;6.18;3.03;;;3.10;99.90;;;;;;4938133;28;90073;-29
2022/01/20 05:06:42;;;;;;;13.30;3.28;;;3.20;99.90;;;;;;4937803;28;90143;-30
2022/01/20 05:09:09;;;;;;;15.70;4.13;;;3.20;99.90;;;;;;4938434;28;88446;-29
2022/01/20 05:11:41;;;;;;;10.57;3.95;;;3.10;99.90;;;;;;4937772;28;87694;-32
2022/01/20 05:14:06;;;;;;;14.60;4.65;;;3.10;99.90;;;;;;4938235;28;90183;-29
2022/01/20 05:16:32;;;;;;;15.57;3.95;;;3.00;99.90;;;;;;4938118;28;89656;-28
2022/01/20 05:18:58;;;;;;;10.90;3.25;;;3.10;99.90;;;;;;4937537;28;89102;-30
2022/01/20 05:21:23;;;;;;;8.02;3.40;;;3.00;99.90;;;;;;4938061;28;87770;-31
2022/01/20 05:23:49;;;;;;;19.90;3.92;;;3.00;99.90;;;;;;4937503;28;90413;-32
2022/01/20 05:26:14;;;;;;;13.68;3.40;;;2.90;99.90;;;;;;4937042;28;90619;-29
2022/01/20 05:28:40;;;;;;;7.55;3.60;;;2.70;99.90;;;;;;4937196;28;89934;-32
2022/01/20 05:31:06;;;;;;;13.80;3.40;;;2.80;99.90;;;;;;4938383;28;87460;-30
2022/01/20 05:33:32;;;;;;;9.60;3.08;;;2.90;99.90;;;;;;4937824;28;90170;-30
2022/01/20 05:35:57;;;;;;;10.50;3.42;;;2.80;99.90;;;;;;4937100;28;89328;-32
2022/01/20 05:38:23;;;;;;;9.80;4.10;;;2.90;99.90;;;;;;4937180;28;89360;-30
2022/01/20 05:40:49;;;;;;;13.35;3.03;;;2.80;99.90;;;;;;4937194;28;87421;-32
2022/01/20 05:43:14;;;;;;;7.38;3.15;;;2.90;99.90;;;;;;4937360;28;88906;-30
2022/01/20 05:45:40;;;;;;;7.10;3.17;;;2.90;99.90;;;;;;4920339;28;90222;-29
2022/01/20 05:48:17;;;;;;;9.15;3.35;;;3.00;99.90;;;;;;4937220;28;89190;-30
2022/01/20 05:50:43;;;;;;;13.32;3.85;;;3.00;99.90;;;;;;4936975;28;87919;-30
2022/01/20 05:53:10;;;;;;;11.82;4.25;;;3.10;99.90;;;;;;4937487;28;90224;-31
2022/01/20 05:55:36;;;;;;;7.68;3.30;;;3.00;99.90;;;;;;4937383;28;89884;-31
2022/01/20 05:58:06;;;;;;;9.10;3.70;;;3.00;99.90;;;;;;4937524;28;89749;-30
2022/01/20 06:00:33;;;;;;;7.43;3.10;;;3.00;99.90;;;;;;4937551;28;88498;-30
2022/01/20 06:05:43;;;;;;;8.32;3.15;;;2.90;99.90;;;;;;4935088;28;89021;-30
2022/01/20 06:08:09;;;;;;;6.03;1.92;;;3.00;99.90;;;;;;4937328;28;90204;-30
2022/01/20 06:10:35;;;;;;;2.88;2.05;;;2.90;99.90;;;;;;4937761;28;88087;-29
2022/01/20 06:13:01;;;;;;;8.38;2.45;;;3.00;99.90;;;;;;4936469;28;91135;-32
2022/01/20 06:15:27;;;;;;;8.43;2.58;;;2.80;99.90;;;;;;4936552;28;90462;-29
2022/01/20 06:17:53;;;;;;;6.32;3.75;;;2.80;99.90;;;;;;4936607;28;89992;-30
2022/01/20 06:20:19;;;;;;;8.35;2.17;;;2.70;99.90;;;;;;4937188;28;88092;-32
2022/01/20 06:22:44;;;;;;;12.52;3.00;;;2.60;99.90;;;;;;4936450;28;90018;-30
2022/01/20 06:25:10;;;;;;;10.43;2.85;;;2.70;99.90;;;;;;4936797;28;88884;-29
2022/01/20 06:27:37;;;;;;;8.30;3.00;;;2.60;99.90;;;;;;4934974;28;89369;-33
2022/01/20 06:30:04;;;;;;;13.20;4.15;;;2.50;99.90;;;;;;4936679;28;87492;-29
2022/01/20 06:32:31;;;;;;;5.97;3.20;;;2.50;99.90;;;;;;4937018;28;90143;-32
2022/01/20 06:34:56;;;;;;;13.30;3.20;;;2.40;99.90;;;;;;4936260;28;89638;-31
2022/01/20 06:37:22;;;;;;;10.65;3.83;;;2.40;99.90;;;;;;4934653;28;89460;-29
2022/01/20 06:39:47;;;;;;;14.20;3.50;;;2.40;99.90;;;;;;4935782;28;88276;-30
2022/01/20 06:42:13;;;;;;;13.90;3.63;;;2.50;99.90;;;;;;4936368;28;90372;-30
2022/01/20 06:44:39;;;;;;;10.57;3.58;;;2.50;99.90;;;;;;4936361;28;89440;-38
2022/01/20 06:47:04;;;;;;;8.93;4.00;;;2.40;99.90;;;;;;4936645;28;89290;-30
2022/01/20 06:49:30;;;;;;;7.55;3.58;;;2.30;99.90;;;;;;4936782;28;87677;-29
2022/01/20 06:51:57;;;;;;;17.67;4.53;;;2.30;99.90;;;;;;4936029;28;89135;-29
2022/01/20 06:54:22;;;;;;;14.57;3.63;;;2.30;99.90;;;;;;4936265;28;89878;-30
2022/01/20 06:56:48;;;;;;;16.10;4.18;;;2.30;99.90;;;;;;4936236;28;89673;-34
2022/01/20 06:59:16;;;;;;;18.55;3.85;;;2.20;99.90;;;;;;4936564;28;87785;-31
2022/01/20 07:01:43;;;;;;;8.88;4.13;;;2.20;99.90;;;;;;4936239;28;88993;-30
2022/01/20 07:04:13;;;;;;;11.48;3.70;;;2.20;99.90;;;;;;4935599;28;90157;-30
2022/01/20 07:06:39;;;;;;;10.60;3.28;;;2.30;99.90;;;;;;4936542;28;90537;-29
2022/01/20 07:09:08;;;;;;;13.63;2.00;;;2.30;99.90;;;;;;4936240;28;87385;-29
2022/01/20 07:11:35;;;;;;;13.77;4.85;;;2.40;99.90;;;;;;4936095;28;89849;-30
2022/01/20 07:14:01;;;;;;;12.13;3.97;;;2.40;99.90;;;;;;4935157;28;89863;-29
2022/01/20 07:16:28;;;;;;;9.98;4.28;;;2.20;99.90;;;;;;4936244;28;89536;-29
2022/01/20 07:18:54;;;;;;;10.88;4.18;;;2.10;99.90;;;;;;4936381;28;87492;-29
2022/01/20 07:21:20;;;;;;;23.13;4.25;;;2.00;99.90;;;;;;4935803;28;88870;-31
2022/01/20 07:23:46;;;;;;;11.07;4.22;;;2.10;99.90;;;;;;4935441;28;89658;-29
2022/01/20 07:26:11;;;;;;;12.27;2.90;;;2.00;99.90;;;;;;4931085;28;89482;-33
2022/01/20 07:28:37;;;;;;;12.35;3.67;;;2.00;99.90;;;;;;4934582;28;88047;-29
2022/01/20 07:31:03;;;;;;;12.55;3.55;;;2.00;99.90;;;;;;4935602;28;90513;-29
2022/01/20 07:33:28;;;;;;;13.23;4.40;;;2.10;99.90;;;;;;4935544;28;89597;-31
2022/01/20 07:35:54;;;;;;;4.60;2.72;;;2.10;99.90;;;;;;4935342;28;89484;-30
2022/01/20 07:38:20;;;;;;;12.93;2.85;;;2.00;99.90;;;;;;4936117;28;88303;-32
2022/01/20 07:40:45;;;;;;;10.25;3.40;;;2.10;99.90;;;;;;4935538;28;90378;-29
2022/01/20 07:43:11;;;;;;;17.20;3.88;;;2.10;99.90;;;;;;4935310;28;89506;-31
2022/01/20 07:45:37;;;;;;;12.02;3.50;;;2.00;99.90;;;;;;4931379;28;89311;-30
2022/01/20 07:48:03;;;;;;;21.70;4.72;;;1.90;99.90;;;;;;4895635;28;87612;-29
2022/01/20 07:50:29;;;;;;;15.32;4.25;;;1.90;99.90;;;;;;4916046;28;90217;-30
2022/01/20 07:52:54;;;;;;;10.55;3.13;;;1.80;99.90;;;;;;4915715;28;89277;-30
2022/01/20 07:55:20;;;;;;;9.70;3.45;;;1.80;99.90;;;;;;4915984;28;90498;-31
2022/01/20 07:57:45;;;;;;;8.55;3.85;;;1.90;99.90;;;;;;4918277;28;87534;-31
2022/01/20 08:00:12;;;;;;;10.00;3.80;;;2.00;99.90;;;;;;4918343;28;90011;-28
2022/01/20 08:02:37;;;;;;;11.32;3.88;;;2.00;99.90;;;;;;4915933;28;89387;-29
2022/01/20 08:05:03;;;;;;;12.18;4.15;;;2.10;99.90;;;;;;4915794;28;89611;-29
2022/01/20 08:07:29;;;;;;;9.32;3.20;;;2.10;99.90;;;;;;4916522;28;87478;-30
2022/01/20 08:09:58;;;;;;;6.05;2.00;;;2.10;99.90;;;;;;4916056;28;90439;-30
2022/01/20 08:12:28;;;;;;;10.25;3.67;;;2.30;99.90;;;;;;4916123;28;90047;-32
2022/01/20 08:14:55;;;;;;;11.00;4.28;;;2.20;99.90;;;;;;4915596;28;89669;-31
2022/01/20 08:17:21;;;;;;;8.75;3.90;;;2.20;99.90;;;;;;4915640;28;87984;-30
2022/01/20 08:19:47;;;;;;;8.55;3.25;;;2.10;99.90;;;;;;4915496;28;90673;-31
2022/01/20 08:22:13;;;;;;;5.53;3.70;;;2.10;99.90;;;;;;4915537;28;89533;-30
2022/01/20 08:24:41;;;;;;;12.88;3.10;;;2.20;99.90;;;;;;4914307;28;90016;-30
2022/01/20 08:27:06;;;;;;;25.45;4.20;;;2.30;99.90;;;;;;4919063;28;87968;-32
2022/01/20 08:29:32;;;;;;;13.00;3.28;;;2.30;99.90;;;;;;4919471;28;89220;-30
2022/01/20 08:31:57;;;;;;;6.15;3.13;;;2.30;99.90;;;;;;4918902;28;89795;-30
2022/01/20 08:34:23;;;;;;;11.63;2.83;;;2.30;99.90;;;;;;4918813;28;89870;-31
2022/01/20 08:36:50;;;;;;;7.13;2.53;;;2.30;99.90;;;;;;4919219;28;87903;-30
2022/01/20 08:42:01;;;;;;;7.50;2.70;;;2.30;99.90;;;;;;4918261;28;90446;-32
2022/01/20 08:44:27;;;;;;;5.45;2.95;;;2.40;99.90;;;;;;4918970;28;93939;-32
2022/01/20 08:46:53;;;;;;;6.88;2.50;;;2.40;99.90;;;;;;4917026;28;87962;-29
2022/01/20 08:49:20;;;;;;;9.05;2.30;;;2.40;99.90;;;;;;4916688;28;90164;-32
2022/01/20 08:51:46;;;;;;;9.68;2.97;;;2.40;99.90;;;;;;4916382;28;90046;-31
2022/01/20 08:54:13;;;;;;;12.77;3.65;;;2.40;99.90;;;;;;4916442;28;89443;-32
2022/01/20 08:56:40;;;;;;;9.30;3.95;;;2.40;99.90;;;;;;4916734;28;88748;-31
2022/01/20 08:59:07;;;;;;;10.20;2.67;;;2.40;99.90;;;;;;4916031;28;90401;-30
2022/01/20 09:01:34;;;;;;;9.10;3.60;;;2.30;99.90;;;;;;4916539;28;89850;-34
2022/01/20 09:03:59;;;;;;;8.45;3.22;;;2.30;99.90;;;;;;4933885;28;89077;-33
2022/01/20 09:06:25;;;;;;;8.82;3.78;;;2.40;99.90;;;;;;4935240;28;88611;-32
2022/01/20 09:08:51;;;;;;;7.85;3.05;;;2.50;99.90;;;;;;4935225;28;90293;-30
2022/01/20 09:11:19;;;;;;;12.15;3.03;;;2.70;99.90;;;;;;4935538;28;89392;-34
2022/01/20 09:16:30;;;;;;;17.80;5.10;;;3.20;99.90;;;;;;4936308;28;87968;-32
2022/01/20 09:18:55;;;;;;;10.20;4.22;;;3.50;99.90;;;;;;4935341;28;88745;-29
2022/01/20 09:21:22;;;;;;;7.95;4.15;;;3.70;99.90;;;;;;4935547;28;89939;-30
2022/01/20 09:23:48;;;;;;;22.73;5.68;;;3.80;99.90;;;;;;4935036;28;89122;-29
2022/01/20 09:26:14;;;;;;;11.27;3.85;;;3.90;99.90;;;;;;4935661;28;87408;-31
2022/01/20 09:28:39;;;;;;;9.63;3.58;;;4.00;99.90;;;;;;4935215;28;90482;-32
2022/01/20 09:31:06;;;;;;;8.10;3.75;;;4.10;99.90;;;;;;4934110;28;90923;-33
2022/01/20 09:33:32;;;;;;;6.47;2.22;;;4.00;99.90;;;;;;4935032;28;91194;-30
2022/01/20 09:35:58;;;;;;;6.97;2.47;;;3.90;99.90;;;;;;4934773;28;87672;-31
2022/01/20 09:38:25;;;;;;;4.15;1.55;;;3.70;99.90;;;;;;4934744;28;90346;-29
2022/01/20 09:40:51;;;;;;;4.95;2.65;;;3.60;99.90;;;;;;4923838;28;88440;-30
2022/01/20 09:43:17;;;;;;;5.97;2.63;;;3.50;99.90;;;;;;4917513;28;89392;-30
2022/01/20 09:45:50;;;;;;;9.55;2.92;;;3.40;99.90;;;;;;4915559;28;88102;-30
2022/01/20 09:48:17;;;;;;;6.15;2.33;;;3.30;99.90;;;;;;4916280;28;90788;-28
2022/01/20 09:50:43;;;;;;;9.43;3.03;;;3.30;99.90;;;;;;4915669;28;89699;-30
2022/01/20 09:53:09;;;;;;;12.60;3.08;;;3.40;99.90;;;;;;4915149;28;89363;-31
2022/01/20 09:55:35;;;;;;;9.68;2.75;;;3.60;99.90;;;;;;4915100;28;88466;-33
2022/01/20 09:58:03;;;;;;;4.30;2.00;;;3.60;99.90;;;;;;4915097;28;90253;-31
2022/01/20 10:00:29;;;;;;;3.70;2.00;;;3.80;99.90;;;;;;4915371;28;88772;-30
2022/01/20 10:03:01;;;;;;;10.80;2.63;;;3.70;99.90;;;;;;4915452;28;89330;-30
2022/01/20 10:05:34;;;;;;;8.75;2.15;;;3.70;99.90;;;;;;4869665;28;88316;-31
2022/01/20 10:08:02;;;;;;;11.38;2.17;;;3.70;99.90;;;;;;4924746;28;90404;-30
2022/01/20 10:10:47;;;;;;;6.70;2.75;;;3.60;99.90;;;;;;4925241;28;89021;-32
2022/01/20 10:13:15;;;;;;;4.15;1.98;;;3.60;99.90;;;;;;4925528;28;89887;-34
2022/01/20 10:15:41;;;;;;;8.97;2.50;;;3.50;99.90;;;;;;4924419;28;87532;-32
2022/01/20 10:18:11;;;;;;;10.75;2.33;;;3.40;99.90;;;;;;4918730;28;89035;-30
2022/01/20 10:20:49;;;;;;;7.13;3.38;;;3.30;99.90;;;;;;4914614;28;90732;-33
2022/01/20 10:23:34;;;;;;;6.38;3.33;;;3.30;99.90;;;;;;4915051;28;90765;-30
2022/01/20 10:26:05;;;;;;;9.05;3.33;;;3.40;99.90;;;;;;4915563;28;88907;-31
2022/01/20 10:28:45;;;;;;;13.25;3.03;;;3.60;99.90;;;;;;4915284;28;90148;-29
2022/01/20 10:31:11;;;;;;;6.95;2.85;;;3.90;99.90;;;;;;4915161;28;89128;-31
2022/01/20 10:33:44;;;;;;;9.32;3.83;;;4.00;99.90;;;;;;4914919;28;89226;-31
2022/01/20 10:36:11;;;;;;;11.13;3.95;;;4.10;99.90;;;;;;4915075;28;87543;-31
2022/01/20 10:38:37;;;;;;;14.68;4.45;;;4.10;99.90;;;;;;4915122;28;90249;-33
2022/01/20 10:41:04;;;;;;;6.93;2.95;;;4.20;99.90;;;;;;4915309;28;89540;-30
2022/01/20 10:43:33;;;;;;;10.73;3.35;;;4.20;99.90;;;;;;4914578;28;89572;-30
2022/01/20 10:46:02;;;;;;;14.73;4.10;;;4.30;99.90;;;;;;4914574;28;88047;-31
2022/01/20 10:48:27;;;;;;;;;;;4.50;99.90;;;;;;4914377;28;90594;-30
2022/01/20 10:50:53;;;;;;;6.38;3.40;;;4.50;99.90;;;;;;4915807;28;89242;-31
2022/01/20 10:53:20;;;;;;;8.77;3.50;;;4.70;99.90;;;;;;4914516;28;89619;-31
2022/01/20 10:55:46;;;;;;;12.27;3.40;;;4.80;99.90;;;;;;4914738;28;87941;-32
2022/01/20 10:58:22;;;;;;;7.65;2.13;;;4.80;99.90;;;;;;4914485;28;90005;-32
2022/01/20 11:00:55;;;;;;;8.23;2.75;;;4.90;99.90;;;;;;4914954;28;88571;-32
2022/01/20 11:03:24;;;;;;;8.32;2.85;;;5.00;99.90;;;;;;4915024;28;89637;-32
2022/01/20 11:05:50;;;;;;;8.02;3.65;;;5.00;99.90;;;;;;4914496;28;87755;-31
2022/01/20 11:08:16;;;;;;;7.32;2.25;;;5.00;99.90;;;;;;4914730;28;90153;-31
2022/01/20 11:10:43;;;;;;;13.32;3.83;;;5.00;99.90;;;;;;4914364;28;90723;-29
2022/01/20 11:13:10;;;;;;;10.05;3.42;;;5.00;99.90;;;;;;4913893;28;89391;-32
2022/01/20 11:15:36;;;;;;;8.02;3.13;;;5.10;99.90;;;;;;4914630;28;87530;-31
2022/01/20 11:18:02;;;;;;;11.80;3.60;;;5.20;99.90;;;;;;4913929;28;90155;-31
2022/01/20 11:20:30;;;;;;;9.07;3.47;;;5.00;99.90;;;;;;4914460;28;89960;-30
2022/01/20 11:23:05;;;;;;;8.07;3.55;;;4.90;99.90;;;;;;4914324;28;89452;-32
2022/01/20 11:25:35;;;;;;;8.77;3.22;;;4.80;99.90;;;;;;4914532;28;87408;-33
2022/01/20 11:28:21;;;;;;;11.13;3.10;;;4.70;99.90;;;;;;4914015;28;90232;-33
2022/01/20 11:31:04;;;;;;;15.93;4.22;;;4.90;99.90;;;;;;4914365;28;89680;-30
2022/01/20 11:33:41;;;;;;;11.85;3.35;;;5.00;99.90;;;;;;4914453;28;89917;-32
2022/01/20 11:36:20;;;;;;;10.43;3.05;;;5.20;99.90;;;;;;4913673;28;88867;-30
2022/01/20 11:38:49;;;;;;;5.60;2.88;;;5.20;99.90;;;;;;4896142;28;89165;-33
2022/01/20 11:41:17;;;;;;;9.70;2.72;;;5.20;99.90;;;;;;4914099;28;89588;-31
2022/01/20 11:43:45;;;;;;;8.85;3.33;;;5.30;99.90;;;;;;4945803;23;88385;-30
2022/01/20 11:46:16;;;;;;;11.77;2.93;;;5.40;99.90;;;;;;4912317;28;88116;-30
2022/01/20 11:48:49;;;;;;;8.40;3.17;;;5.40;99.90;;;;;;4913927;28;90067;-31
2022/01/20 11:51:17;;;;;;;5.43;3.05;;;5.30;99.90;;;;;;4913966;28;89989;-31
2022/01/20 11:53:58;;;;;;;8.43;2.87;;;5.20;99.90;;;;;;4912307;28;89884;-30
2022/01/20 11:56:34;;;;;;;7.88;2.60;;;5.20;99.90;;;;;;4914170;28;87699;-31
2022/01/20 11:59:00;;;;;;;9.13;3.28;;;5.10;99.90;;;;;;4913269;28;90259;-30
2022/01/20 12:01:27;;;;;;;9.68;3.35;;;4.90;99.90;;;;;;4913401;28;90616;-30
2022/01/20 12:03:54;;;;;;;16.20;3.33;;;4.80;99.90;;;;;;4913195;28;90283;-31
2022/01/20 12:06:24;;;;;;;13.98;4.60;;;4.70;99.90;;;;;;4913955;28;88011;-30
2022/01/20 12:08:56;;;;;;;15.82;3.28;;;4.70;99.90;;;;;;4913463;28;90174;-31
2022/01/20 12:11:51;;;;;;;12.32;4.60;;;4.80;99.90;;;;;;4913640;28;89602;-33
2022/01/20 12:14:35;;;;;;;6.05;3.58;;;4.90;99.90;;;;;;4913768;28;88430;-30
2022/01/20 12:17:09;;;;;;;6.90;3.42;;;5.00;99.90;;;;;;4913989;28;88419;-33
2022/01/20 12:19:35;;;;;;;10.57;2.63;;;5.10;99.90;;;;;;4913718;28;90085;-31
2022/01/20 12:22:03;;;;;;;10.07;3.70;;;5.10;99.90;;;;;;4913138;28;89658;-32
2022/01/20 12:24:29;;;;;;;11.60;2.45;;;4.90;99.90;;;;;;4913412;28;89751;-32
2022/01/20 12:26:55;;;;;;;11.88;5.00;;;4.70;99.90;;;;;;4912810;28;88775;-33
2022/01/20 12:29:20;;;;;;;10.15;2.75;;;4.50;99.90;;;;;;4913411;28;90316;-33
2022/01/20 12:31:56;;;;;;;7.10;2.28;;;4.40;99.90;;;;;;4913052;28;89577;-31
2022/01/20 12:34:22;;;;;;;6.82;2.65;;;4.40;99.90;;;;;;4912249;28;90880;-31
2022/01/20 12:36:56;;;;;;;8.48;3.33;;;4.30;99.90;;;;;;4913299;28;87827;-31
2022/01/20 12:39:26;;;;;;;4.70;2.35;;;4.50;99.90;;;;;;4913074;28;90427;-29
2022/01/20 12:41:59;;;;;;;11.63;2.78;;;4.60;99.90;;;;;;4912934;28;90066;-33
2022/01/20 12:44:48;;;;;;;9.77;3.05;;;4.70;99.90;;;;;;4912807;28;90055;-31
2022/01/20 12:47:16;;;;;;;10.98;3.17;;;4.70;99.90;;;;;;4909886;28;87749;-30
2022/01/20 12:49:42;;;;;;;12.63;3.28;;;4.80;99.90;;;;;;4912137;28;90175;-32
2022/01/20 12:52:09;;;;;;;11.43;3.97;;;4.80;99.90;;;;;;4912314;28;90364;-31
2022/01/20 12:54:35;;;;;;;6.18;2.25;;;4.90;99.90;;;;;;4912115;28;90387;-31
2022/01/20 12:57:07;;;;;;;8.43;2.35;;;4.80;99.90;;;;;;4913245;28;88706;-31
2022/01/20 12:59:38;;;;;;;8.63;4.75;;;4.90;99.90;;;;;;4912578;28;90270;-31
2022/01/20 13:02:07;;;;;;;11.50;3.28;;;5.00;99.90;;;;;;4912988;28;89525;-32
2022/01/20 13:04:33;;;;;;;;;;;4.90;99.90;;;;;;4912892;28;89816;-32
2022/01/20 13:07:01;;;;;;;11.23;3.85;;;5.00;99.90;;;;;;4914454;28;87530;-30
2022/01/20 13:09:47;;;;;;;12.45;4.05;;;4.90;99.90;;;;;;4913402;28;89270;-31
2022/01/20 13:12:15;;;;;;;5.35;3.20;;;4.90;99.90;;;;;;4914834;28;90476;-36
2022/01/20 13:14:50;;;;;;;8.35;3.28;;;4.90;99.90;;;;;;4916040;28;88968;-34
2022/01/20 13:17:22;;;;;;;7.13;3.45;;;4.90;99.90;;;;;;4916322;28;88995;-31
2022/01/20 13:19:48;;;;;;;19.38;3.90;;;5.00;99.90;;;;;;4915764;28;90298;-30
2022/01/20 13:22:29;;;;;;;10.38;3.90;;;5.20;99.90;;;;;;4916607;28;89745;-31
2022/01/20 13:25:08;;;;;;;12.90;4.28;;;5.20;99.90;;;;;;4915819;28;89516;-33
2022/01/20 13:27:34;;;;;;;10.93;4.13;;;5.20;99.90;;;;;;4916395;28;87439;-31
2022/01/20 13:30:00;;;;;;;3.28;2.58;;;5.20;99.90;;;;;;4915505;28;90284;-30
2022/01/20 13:32:25;;;;;;;10.45;3.47;;;5.20;99.90;;;;;;4916199;28;89658;-31
2022/01/20 13:35:02;;;;;;;10.18;3.40;;;5.20;99.90;;;;;;4915730;28;89131;-33
2022/01/20 13:37:30;;;;;;;17.42;4.45;;;5.10;99.90;;;;;;4916227;28;87541;-31
2022/01/20 13:39:56;;;;;;;;;;;5.00;99.90;;;;;;4915781;28;89976;-31
2022/01/20 13:45:13;;;;;;;11.82;3.47;;;5.00;99.90;;;;;;4915196;28;90447;-32
2022/01/20 13:48:05;;;;;;;10.75;3.75;;;5.00;99.90;;;;;;4915189;28;87806;-33
2022/01/20 13:50:39;;;;;;;10.52;3.63;;;5.10;99.90;;;;;;4913346;28;90382;-30
2022/01/20 13:53:16;;;;;;;20.17;3.83;;;5.00;99.90;;;;;;4915421;28;89760;-32
2022/01/20 13:55:47;;;;;;;8.50;2.90;;;4.70;99.90;;;;;;4915145;28;89571;-34
2022/01/20 13:58:30;;;;;;;9.52;2.97;;;4.50;99.90;;;;;;4915704;28;87472;-31
2022/01/20 14:00:59;;;;;;;10.07;3.10;;;4.40;99.90;;;;;;4915216;28;90634;-32
2022/01/20 14:03:24;;;;;;;9.18;2.58;;;4.30;99.90;;;;;;4915042;28;89690;-34
2022/01/20 14:05:55;;;;;;;5.82;2.60;;;4.20;99.90;;;;;;4914602;28;90210;-30
2022/01/20 14:08:21;;;;;;;10.45;3.35;;;4.30;99.90;;;;;;4915221;28;88383;-33
2022/01/20 14:10:46;;;;;;;12.93;3.42;;;4.20;99.90;;;;;;4914880;28;90755;-30
2022/01/20 14:13:12;;;;;;;8.77;3.33;;;4.20;99.90;;;;;;4915277;28;89468;-32
2022/01/20 14:15:38;;;;;;;3.47;1.85;;;4.30;99.90;;;;;;4913274;28;88506;-33
2022/01/20 14:18:06;;;;;;;12.75;3.50;;;4.30;99.90;;;;;;4913844;28;88564;-31
2022/01/20 14:20:32;;;;;;;;;;;4.40;99.90;;;;;;4914651;28;89966;-29